Time;durP1;ratioP1;P1;durP2;ratioP2;P2;SDS_P1;SDS_P2;PMS_P1;PMS_P2;Temp;Humidity;BMP_temperature;BMP_pressure;BME280_temperature;BME280_humidity;BME280_pressure;Samples;Min_cycle;Max_cycle;Signal;HPM_P1;HPM_P2
2021/04/20 00:00:54;;;;;;;25.03;13.97;;;3.10;99.90;;;;;;5063651;28;20304;-59
2021/04/20 00:03:20;;;;;;;29.10;14.43;;;3.00;99.90;;;;;;5069343;28;20414;-59
2021/04/20 00:05:45;;;;;;;31.87;15.40;;;3.00;99.90;;;;;;5064746;28;20448;-59
2021/04/20 00:08:11;;;;;;;30.73;14.93;;;3.00;99.90;;;;;;5065899;28;20563;-59
2021/04/20 00:10:37;;;;;;;31.10;14.13;;;2.90;99.90;;;;;;5063722;28;20183;-59
2021/04/20 00:13:04;;;;;;;31.07;14.07;;;2.90;99.90;;;;;;5065169;28;20186;-58
2021/04/20 00:15:33;;;;;;;27.13;14.20;;;2.90;99.90;;;;;;5066782;28;20427;-58
2021/04/20 00:18:01;;;;;;;30.90;14.33;;;2.80;99.90;;;;;;5063077;28;20865;-58
2021/04/20 00:20:27;;;;;;;30.50;14.83;;;2.80;99.90;;;;;;5066014;28;20424;-59
2021/04/20 00:22:53;;;;;;;30.40;13.97;;;2.80;99.90;;;;;;5067190;28;20438;-59
2021/04/20 00:25:19;;;;;;;26.37;13.80;;;2.80;99.90;;;;;;5064738;28;20508;-59
2021/04/20 00:27:45;;;;;;;23.90;12.30;;;2.80;99.90;;;;;;5059456;28;20553;-58
2021/04/20 00:30:11;;;;;;;30.10;14.97;;;2.80;99.90;;;;;;5061134;28;20942;-58
2021/04/20 00:32:38;;;;;;;26.93;13.53;;;2.70;99.90;;;;;;5066930;28;20198;-58
2021/04/20 00:35:05;;;;;;;28.27;14.10;;;2.70;99.90;;;;;;5065398;28;20428;-59
2021/04/20 00:37:35;;;;;;;27.10;13.80;;;2.70;99.90;;;;;;5063145;28;20504;-58
2021/04/20 00:40:01;;;;;;;24.57;12.80;;;2.60;99.90;;;;;;5057397;28;20449;-59
2021/04/20 00:42:27;;;;;;;26.37;13.70;;;2.60;99.90;;;;;;5065841;28;20446;-58
2021/04/20 00:44:53;;;;;;;27.07;14.77;;;2.60;99.90;;;;;;5063464;28;20461;-59
2021/04/20 00:47:19;;;;;;;26.90;14.10;;;2.60;99.90;;;;;;5065940;28;20670;-59
2021/04/20 00:49:44;;;;;;;28.90;14.77;;;2.60;99.90;;;;;;5063326;28;20491;-59
2021/04/20 00:52:10;;;;;;;32.87;15.13;;;2.50;99.90;;;;;;5065553;28;20167;-59
2021/04/20 00:54:36;;;;;;;25.60;13.50;;;2.50;99.90;;;;;;5065975;28;20185;-58
2021/04/20 00:57:02;;;;;;;28.60;13.83;;;2.50;99.90;;;;;;5067169;28;20665;-59
2021/04/20 00:59:27;;;;;;;28.80;14.63;;;2.50;99.90;;;;;;5062574;28;20177;-58
2021/04/20 01:01:53;;;;;;;27.07;14.50;;;2.50;99.90;;;;;;5078432;28;20184;-60
2021/04/20 01:04:20;;;;;;;32.37;14.33;;;2.40;99.90;;;;;;5069652;28;20198;-59
2021/04/20 01:06:48;;;;;;;30.47;15.37;;;2.40;99.90;;;;;;5069172;28;20418;-59
2021/04/20 01:09:16;;;;;;;29.70;14.23;;;2.30;99.90;;;;;;5069156;28;20538;-59
2021/04/20 01:11:43;;;;;;;31.03;15.10;;;2.30;99.90;;;;;;5066520;28;20461;-60
2021/04/20 01:14:10;;;;;;;30.60;15.40;;;2.30;99.90;;;;;;5068267;28;20843;-59
2021/04/20 01:16:37;;;;;;;36.27;14.93;;;2.30;99.90;;;;;;5068615;28;20441;-59
2021/04/20 01:19:05;;;;;;;33.63;14.80;;;2.20;99.90;;;;;;5063116;28;20461;-58
2021/04/20 01:21:33;;;;;;;29.10;13.67;;;2.20;99.90;;;;;;5066718;28;20429;-59
2021/04/20 01:24:08;;;;;;;30.63;14.90;;;2.20;99.90;;;;;;5057874;28;20411;-59
2021/04/20 01:26:41;;;;;;;32.93;14.17;;;2.20;99.90;;;;;;5071440;28;20424;-59
2021/04/20 01:29:07;;;;;;;26.77;14.53;;;2.20;99.90;;;;;;5067833;28;20917;-59
2021/04/20 01:31:36;;;;;;;30.23;14.40;;;2.20;99.90;;;;;;5061565;28;20438;-59
2021/04/20 01:34:02;;;;;;;29.40;13.70;;;2.20;99.90;;;;;;5065012;28;20504;-59
2021/04/20 01:36:29;;;;;;;30.57;13.73;;;2.20;99.90;;;;;;5066497;28;20439;-59
2021/04/20 01:38:56;;;;;;;25.90;13.90;;;2.20;99.90;;;;;;5068913;28;20457;-59
2021/04/20 01:41:27;;;;;;;29.90;14.33;;;2.20;99.90;;;;;;5068522;28;20821;-59
2021/04/20 01:43:54;;;;;;;30.60;14.50;;;2.20;99.90;;;;;;5064487;28;20536;-58
2021/04/20 01:46:20;;;;;;;27.00;13.20;;;2.20;99.90;;;;;;5064114;28;20451;-59
2021/04/20 01:48:47;;;;;;;28.67;12.83;;;2.20;99.90;;;;;;5069455;28;20470;-58
2021/04/20 01:51:18;;;;;;;26.27;14.00;;;2.10;99.90;;;;;;5066891;28;20422;-59
2021/04/20 01:53:44;;;;;;;26.47;14.50;;;2.10;99.90;;;;;;5066618;28;20425;-58
2021/04/20 01:56:11;;;;;;;27.37;14.23;;;2.10;99.90;;;;;;5066593;28;20454;-58
2021/04/20 01:58:40;;;;;;;33.43;13.40;;;2.10;99.90;;;;;;5068520;28;20433;-59
2021/04/20 02:01:10;;;;;;;30.23;15.87;;;2.00;99.90;;;;;;5061420;28;20487;-59
2021/04/20 02:03:36;;;;;;;26.20;12.97;;;2.00;99.90;;;;;;5063664;28;20425;-59
2021/04/20 02:06:03;;;;;;;28.00;14.03;;;2.00;99.90;;;;;;5066111;28;20493;-59
2021/04/20 02:08:29;;;;;;;31.43;13.57;;;1.90;99.90;;;;;;5065698;28;20499;-58
2021/04/20 02:10:56;;;;;;;28.73;13.43;;;1.90;99.90;;;;;;5069537;28;20419;-58
2021/04/20 02:13:22;;;;;;;33.83;14.33;;;1.90;99.90;;;;;;5066310;28;20453;-58
2021/04/20 02:15:48;;;;;;;28.13;12.80;;;1.80;99.90;;;;;;5067834;28;20454;-58
2021/04/20 02:18:15;;;;;;;27.47;13.17;;;1.80;99.90;;;;;;5064853;28;20445;-60
2021/04/20 02:20:42;;;;;;;25.00;13.17;;;1.80;99.90;;;;;;5070085;28;20426;-58
2021/04/20 02:23:08;;;;;;;33.30;14.23;;;1.80;99.90;;;;;;5084480;28;20423;-59
2021/04/20 02:25:35;;;;;;;22.90;12.60;;;1.80;99.90;;;;;;5069172;28;20508;-58
2021/04/20 02:28:01;;;;;;;30.13;14.40;;;1.80;99.90;;;;;;5068243;28;20967;-58
2021/04/20 02:30:28;;;;;;;26.93;13.07;;;1.70;99.90;;;;;;5064716;28;20419;-58
2021/04/20 02:32:55;;;;;;;24.40;13.17;;;1.70;99.90;;;;;;5066933;28;20986;-58
2021/04/20 02:35:21;;;;;;;27.20;12.87;;;1.60;99.90;;;;;;5060550;28;20435;-59
2021/04/20 02:37:47;;;;;;;33.87;15.17;;;1.60;99.90;;;;;;5066136;28;20519;-59
2021/04/20 02:40:22;;;;;;;25.23;13.60;;;1.60;99.90;;;;;;5083973;28;20644;-58
2021/04/20 02:42:50;;;;;;;29.80;13.23;;;1.60;99.90;;;;;;5065462;28;20517;-58
2021/04/20 02:45:17;;;;;;;27.17;13.80;;;1.60;99.90;;;;;;5068083;28;20951;-59
2021/04/20 02:47:44;;;;;;;24.50;12.87;;;1.60;99.90;;;;;;5068462;28;20465;-57
2021/04/20 02:50:13;;;;;;;28.20;13.87;;;1.50;99.90;;;;;;5066880;28;20419;-59
2021/04/20 02:52:39;;;;;;;32.93;14.57;;;1.50;99.90;;;;;;5066718;28;20922;-58
2021/04/20 02:55:07;;;;;;;33.17;14.10;;;1.50;99.90;;;;;;5066945;28;20933;-58
2021/04/20 02:57:37;;;;;;;25.27;12.73;;;1.50;99.90;;;;;;5068931;28;20438;-59
2021/04/20 03:00:07;;;;;;;30.77;14.20;;;1.40;99.90;;;;;;5064788;28;20854;-59
2021/04/20 03:02:36;;;;;;;28.70;13.93;;;1.40;99.90;;;;;;5064655;28;20440;-58
2021/04/20 03:05:05;;;;;;;29.20;14.30;;;1.40;99.90;;;;;;5082615;28;20460;-59
2021/04/20 03:07:31;;;;;;;37.00;15.33;;;1.40;99.90;;;;;;5089764;28;20447;-59
2021/04/20 03:09:57;;;;;;;32.43;16.23;;;1.30;99.90;;;;;;5082016;28;20434;-58
2021/04/20 03:12:25;;;;;;;28.80;15.60;;;1.30;99.90;;;;;;5067465;28;20458;-59
2021/04/20 03:14:51;;;;;;;33.50;15.20;;;1.30;99.90;;;;;;5062139;28;20180;-60
2021/04/20 03:17:19;;;;;;;29.63;15.23;;;1.30;99.90;;;;;;5068163;28;21166;-59
2021/04/20 03:19:44;;;;;;;29.33;13.83;;;1.30;99.90;;;;;;5068209;28;20767;-59
2021/04/20 03:22:13;;;;;;;33.10;13.53;;;1.30;99.90;;;;;;5066483;28;20419;-59
2021/04/20 03:24:57;;;;;;;32.00;14.47;;;1.30;99.90;;;;;;5065549;28;20282;-59
2021/04/20 03:27:22;;;;;;;27.80;14.57;;;1.30;99.90;;;;;;5066134;28;20469;-61
2021/04/20 03:29:48;;;;;;;28.90;15.13;;;1.30;99.90;;;;;;5067197;28;20449;-59
2021/04/20 03:32:14;;;;;;;30.93;14.93;;;1.30;99.90;;;;;;5067340;28;20817;-59
2021/04/20 03:34:52;;;;;;;27.40;13.80;;;1.30;99.90;;;;;;5065019;28;20263;-59
2021/04/20 03:37:26;;;;;;;23.00;12.67;;;1.30;99.90;;;;;;5064594;28;20466;-60
2021/04/20 03:39:55;;;;;;;29.37;14.30;;;1.30;99.90;;;;;;5068367;28;22057;-59
2021/04/20 03:42:29;;;;;;;32.30;15.17;;;1.30;99.90;;;;;;5063038;28;20422;-59
2021/04/20 03:45:00;;;;;;;27.03;13.90;;;1.30;99.90;;;;;;5063924;28;20438;-59
2021/04/20 03:47:50;;;;;;;30.17;14.47;;;1.20;99.90;;;;;;5066051;28;20815;-59
2021/04/20 03:50:38;;;;;;;31.13;14.33;;;1.20;99.90;;;;;;5063532;28;20397;-60
2021/04/20 03:53:06;;;;;;;24.20;12.90;;;1.20;99.90;;;;;;5058242;28;20414;-60
2021/04/20 03:55:33;;;;;;;27.40;13.87;;;1.20;99.90;;;;;;5068209;28;20429;-60
2021/04/20 03:58:01;;;;;;;25.43;13.50;;;1.20;99.90;;;;;;5068433;28;20429;-59
2021/04/20 04:00:28;;;;;;;28.90;14.13;;;1.20;99.90;;;;;;5064208;28;20425;-59
2021/04/20 04:02:57;;;;;;;29.57;15.40;;;1.20;99.90;;;;;;5064026;28;20999;-60
2021/04/20 04:05:26;;;;;;;28.03;14.87;;;1.10;99.90;;;;;;5067437;28;20453;-59
2021/04/20 04:07:57;;;;;;;27.47;15.23;;;1.10;99.90;;;;;;5065714;28;20434;-61
2021/04/20 04:10:25;;;;;;;30.47;13.73;;;1.10;99.90;;;;;;5061599;28;20415;-59
2021/04/20 04:12:59;;;;;;;32.87;13.90;;;1.10;99.90;;;;;;5066627;28;20420;-59
2021/04/20 04:15:28;;;;;;;33.30;14.83;;;1.10;99.90;;;;;;5059602;28;20423;-59
2021/04/20 04:17:57;;;;;;;29.90;13.80;;;1.10;99.90;;;;;;5059476;28;20810;-60
2021/04/20 04:20:23;;;;;;;28.87;14.00;;;1.00;99.90;;;;;;5063149;28;20425;-60
2021/04/20 04:23:12;;;;;;;25.43;13.50;;;1.00;99.90;;;;;;5062825;28;20405;-59
2021/04/20 04:25:47;;;;;;;28.60;14.43;;;1.00;99.90;;;;;;5067495;28;20445;-59
2021/04/20 04:28:14;;;;;;;30.30;14.57;;;1.00;99.90;;;;;;5063623;28;20465;-60
2021/04/20 04:30:40;;;;;;;31.67;15.13;;;1.00;99.90;;;;;;5063123;28;20416;-59
2021/04/20 04:33:06;;;;;;;29.20;14.00;;;1.00;99.90;;;;;;5063279;28;20402;-59
2021/04/20 04:35:35;;;;;;;29.67;14.17;;;1.10;99.90;;;;;;5067239;28;20472;-59
2021/04/20 04:38:01;;;;;;;30.43;14.33;;;1.00;99.90;;;;;;5063404;28;20535;-59
2021/04/20 04:40:28;;;;;;;32.23;14.97;;;1.10;99.90;;;;;;5073154;28;20423;-59
2021/04/20 04:42:54;;;;;;;28.27;13.60;;;1.10;99.90;;;;;;5057014;28;20454;-59
2021/04/20 04:45:20;;;;;;;29.07;14.10;;;1.10;99.90;;;;;;5061374;28;21469;-60
2021/04/20 04:47:46;;;;;;;29.87;13.00;;;1.10;99.90;;;;;;5063567;28;20485;-59
2021/04/20 04:50:13;;;;;;;38.90;16.67;;;1.10;99.90;;;;;;5065175;28;20536;-55
2021/04/20 04:52:40;;;;;;;38.37;15.73;;;1.20;99.90;;;;;;5065962;28;20286;-52
2021/04/20 04:55:08;;;;;;;37.30;15.53;;;1.20;99.90;;;;;;5078175;28;20504;-54
2021/04/20 04:57:34;;;;;;;37.20;16.07;;;1.20;99.90;;;;;;5060303;28;20458;-61
2021/04/20 05:00:06;;;;;;;41.90;15.60;;;1.20;99.90;;;;;;5064738;28;20453;-61
2021/04/20 05:02:34;;;;;;;44.73;18.27;;;1.20;99.90;;;;;;5063484;28;20452;-60
2021/04/20 05:05:05;;;;;;;38.43;16.30;;;1.20;99.90;;;;;;5059331;28;20455;-60
2021/04/20 05:07:31;;;;;;;48.63;17.73;;;1.30;99.90;;;;;;5060730;28;20451;-61
2021/04/20 05:10:10;;;;;;;72.80;17.50;;;1.30;99.90;;;;;;5067539;28;20433;-61
2021/04/20 05:12:36;;;;;;;99.60;17.77;;;1.30;99.90;;;;;;5072453;28;20512;-61
2021/04/20 05:15:12;;;;;;;67.20;17.67;;;1.30;99.90;;;;;;5071678;28;20448;-61
2021/04/20 05:17:41;;;;;;;40.60;15.87;;;1.30;99.90;;;;;;5064083;28;20529;-60
2021/04/20 05:20:10;;;;;;;53.73;15.90;;;1.30;99.90;;;;;;5070784;28;20430;-60
2021/04/20 05:22:36;;;;;;;50.33;15.43;;;1.40;99.90;;;;;;5067840;28;20513;-60
2021/04/20 05:25:14;;;;;;;52.80;15.80;;;1.40;99.90;;;;;;5072553;28;20588;-60
2021/04/20 05:27:40;;;;;;;67.77;17.33;;;1.40;99.90;;;;;;5063726;28;20867;-61
2021/04/20 05:30:07;;;;;;;69.20;18.80;;;1.40;99.90;;;;;;5071913;28;20439;-62
2021/04/20 05:32:38;;;;;;;96.07;17.50;;;1.40;99.90;;;;;;5061692;28;20438;-58
2021/04/20 05:35:05;;;;;;;54.23;17.00;;;1.40;99.90;;;;;;5060807;28;20457;-61
2021/04/20 05:37:33;;;;;;;42.60;15.63;;;1.40;99.90;;;;;;5066214;28;20541;-61
2021/04/20 05:40:11;;;;;;;47.00;17.23;;;1.40;99.90;;;;;;5070665;28;20652;-60
2021/04/20 05:42:38;;;;;;;45.67;16.90;;;1.50;99.90;;;;;;5070808;28;20426;-60
2021/04/20 05:45:06;;;;;;;42.90;18.40;;;1.50;99.90;;;;;;5068871;28;20489;-60
2021/04/20 05:47:37;;;;;;;83.50;20.60;;;1.60;99.90;;;;;;5056711;28;20450;-60
2021/04/20 05:50:06;;;;;;;50.87;19.50;;;1.60;99.90;;;;;;5066683;28;20426;-61
2021/04/20 05:52:36;;;;;;;60.40;19.20;;;1.60;99.90;;;;;;5076909;28;20771;-61
2021/04/20 05:55:04;;;;;;;47.67;18.73;;;1.70;99.90;;;;;;5065076;28;20524;-61
2021/04/20 05:57:30;;;;;;;81.87;21.97;;;1.70;99.90;;;;;;5063572;28;20966;-61
2021/04/20 05:59:57;;;;;;;85.17;22.17;;;1.70;99.90;;;;;;5070744;28;20431;-61
2021/04/20 06:02:25;;;;;;;45.73;18.60;;;1.70;99.90;;;;;;5069246;28;20648;-59
2021/04/20 06:04:54;;;;;;;54.20;21.00;;;1.70;99.90;;;;;;5063267;28;21051;-60
2021/04/20 06:07:21;;;;;;;63.57;20.10;;;1.70;99.90;;;;;;5067125;28;20451;-60
2021/04/20 06:09:48;;;;;;;67.77;21.70;;;1.70;99.90;;;;;;5067335;28;20428;-60
2021/04/20 06:12:14;;;;;;;59.40;20.63;;;1.80;99.90;;;;;;5062584;28;20969;-61
2021/04/20 06:14:40;;;;;;;47.47;16.30;;;1.80;99.90;;;;;;5070358;28;20441;-61
2021/04/20 06:17:12;;;;;;;30.90;15.57;;;1.80;99.90;;;;;;5062415;28;20923;-60
2021/04/20 06:19:39;;;;;;;28.50;14.43;;;1.90;99.90;;;;;;5067307;28;20437;-61
2021/04/20 06:22:14;;;;;;;39.57;16.30;;;2.00;99.90;;;;;;5062555;28;20518;-62
2021/04/20 06:24:40;;;;;;;29.77;15.47;;;2.00;99.90;;;;;;5068905;28;20954;-61
2021/04/20 06:27:07;;;;;;;37.33;17.93;;;2.10;99.90;;;;;;5057824;28;20443;-59
2021/04/20 06:29:32;;;;;;;52.63;22.23;;;2.20;99.90;;;;;;5065673;28;20438;-59
2021/04/20 06:32:00;;;;;;;64.93;23.40;;;2.30;99.90;;;;;;5060926;28;20810;-60
2021/04/20 06:34:26;;;;;;;72.90;22.23;;;2.40;99.90;;;;;;5068474;28;20176;-59
2021/04/20 06:36:53;;;;;;;73.03;25.03;;;2.50;99.90;;;;;;5067336;28;20439;-60
2021/04/20 06:39:20;;;;;;;63.20;23.37;;;2.50;99.90;;;;;;5065743;28;20473;-62
2021/04/20 06:41:55;;;;;;;63.20;22.00;;;2.50;99.90;;;;;;5066459;28;20811;-61
2021/04/20 06:44:30;;;;;;;45.97;17.60;;;2.50;99.90;;;;;;5065466;28;20457;-60
2021/04/20 06:47:11;;;;;;;38.20;17.50;;;2.60;99.90;;;;;;5066703;28;20943;-60
2021/04/20 06:49:43;;;;;;;36.00;16.40;;;2.60;99.90;;;;;;5068405;28;20930;-61
2021/04/20 06:52:17;;;;;;;38.47;17.63;;;2.70;99.90;;;;;;5071122;28;20414;-61
2021/04/20 06:54:52;;;;;;;33.33;16.63;;;2.90;99.90;;;;;;5086037;28;20489;-61
2021/04/20 06:57:32;;;;;;;32.43;15.90;;;3.10;99.90;;;;;;5085941;28;20465;-62
2021/04/20 07:00:14;;;;;;;26.90;14.33;;;3.30;99.90;;;;;;5085493;28;20479;-62
2021/04/20 07:03:07;;;;;;;38.23;14.97;;;3.50;99.90;;;;;;5087573;28;20456;-62
2021/04/20 07:05:42;;;;;;;26.97;13.60;;;3.60;99.90;;;;;;5088592;28;20492;-62
2021/04/20 07:08:31;;;;;;;30.00;14.10;;;3.80;99.90;;;;;;5085156;28;20455;-65
2021/04/20 07:10:57;;;;;;;27.57;13.77;;;3.90;99.90;;;;;;5070408;28;20574;-61
2021/04/20 07:13:25;;;;;;;27.83;13.77;;;4.10;99.90;;;;;;5062984;28;20425;-61
2021/04/20 07:16:23;;;;;;;26.17;13.67;;;4.20;99.90;;;;;;5062536;28;20973;-61
2021/04/20 07:19:26;;;;;;;29.20;14.70;;;4.40;99.90;;;;;;5012032;28;20472;-60
2021/04/20 07:22:10;;;;;;;26.93;12.77;;;4.60;99.90;;;;;;5064709;28;20947;-60
2021/04/20 07:25:00;;;;;;;26.87;13.97;;;4.80;99.90;;;;;;5066827;28;20538;-60
2021/04/20 07:28:21;;;;;;;30.07;15.20;;;5.00;99.90;;;;;;5073518;28;20496;-60
2021/04/20 07:31:02;;;;;;;26.60;14.30;;;5.20;99.90;;;;;;5065961;28;20460;-60
2021/04/20 07:34:05;;;;;;;30.33;14.93;;;5.40;99.90;;;;;;5065189;28;20424;-61
2021/04/20 07:36:34;;;;;;;33.50;16.17;;;5.60;99.90;;;;;;5059868;28;20429;-61
2021/04/20 07:39:09;;;;;;;38.20;16.63;;;5.80;99.90;;;;;;5058150;28;20949;-62
2021/04/20 07:42:20;;;;;;;33.10;15.70;;;6.00;99.90;;;;;;5068028;28;20435;-60
2021/04/20 07:45:21;;;;;;;28.60;15.97;;;6.10;99.90;;;;;;5061791;28;20522;-61
2021/04/20 07:47:50;;;;;;;38.13;15.93;;;6.40;99.90;;;;;;5060549;28;20448;-61
2021/04/20 07:50:20;;;;;;;32.17;16.27;;;6.60;99.90;;;;;;5062351;28;20425;-63
2021/04/20 07:53:15;;;;;;;32.17;16.90;;;6.70;99.90;;;;;;5062503;28;20517;-61
2021/04/20 07:56:10;;;;;;;29.63;14.93;;;6.90;99.90;;;;;;5059212;28;20511;-61
2021/04/20 07:58:43;;;;;;;30.40;16.77;;;7.10;99.50;;;;;;5061954;28;20475;-62
2021/04/20 08:01:20;;;;;;;30.70;13.83;;;7.20;99.40;;;;;;5061851;28;20418;-61
2021/04/20 08:03:54;;;;;;;22.10;12.90;;;7.40;98.60;;;;;;5053656;28;21034;-61
2021/04/20 08:06:25;;;;;;;21.87;12.17;;;7.50;98.10;;;;;;5063261;28;21070;-60
2021/04/20 08:09:20;;;;;;;25.43;14.10;;;7.60;97.10;;;;;;5062286;28;20441;-63
2021/04/20 08:11:48;;;;;;;30.63;13.90;;;7.80;97.00;;;;;;5060047;28;20482;-60
2021/04/20 08:14:18;;;;;;;24.10;13.93;;;7.90;96.60;;;;;;5059641;28;20502;-61
2021/04/20 08:16:55;;;;;;;24.17;13.53;;;8.00;95.30;;;;;;5065801;28;20413;-61
2021/04/20 08:19:32;;;;;;;21.80;13.20;;;8.00;95.00;;;;;;5078464;28;20971;-61
2021/04/20 08:22:00;;;;;;;27.70;14.70;;;7.90;94.70;;;;;;5073203;28;20444;-61
2021/04/20 08:24:32;;;;;;;25.80;13.67;;;7.90;95.10;;;;;;5064082;28;20453;-62
2021/04/20 08:27:31;;;;;;;22.43;13.50;;;7.90;94.60;;;;;;5063719;28;20424;-61
2021/04/20 08:30:06;;;;;;;24.60;13.37;;;7.90;94.80;;;;;;5063369;28;20428;-61
2021/04/20 08:32:33;;;;;;;23.07;13.03;;;7.90;95.10;;;;;;5069490;28;21002;-62
2021/04/20 08:35:01;;;;;;;21.70;13.27;;;7.80;95.30;;;;;;5082358;28;20429;-61
2021/04/20 08:37:58;;;;;;;23.00;12.67;;;7.80;95.30;;;;;;5058597;28;20445;-61
2021/04/20 08:40:44;;;;;;;26.70;12.97;;;7.80;95.40;;;;;;5052758;28;20437;-61
2021/04/20 08:43:48;;;;;;;23.70;12.63;;;7.80;94.90;;;;;;5062766;28;20507;-61
2021/04/20 08:46:32;;;;;;;27.17;13.40;;;7.90;94.40;;;;;;5057469;28;20452;-62
2021/04/20 08:49:12;;;;;;;20.07;11.70;;;7.90;94.10;;;;;;5064190;28;21004;-61
2021/04/20 08:51:59;;;;;;;22.37;12.93;;;8.00;94.00;;;;;;5062791;28;20423;-61
2021/04/20 08:54:47;;;;;;;22.13;13.60;;;8.40;94.50;;;;;;5064065;28;20464;-61
2021/04/20 08:57:24;;;;;;;21.13;12.23;;;8.70;93.40;;;;;;5069832;28;20499;-60
2021/04/20 09:00:23;;;;;;;23.83;13.00;;;8.90;91.20;;;;;;5065749;28;20426;-61
2021/04/20 09:03:08;;;;;;;26.87;12.30;;;8.80;89.70;;;;;;5053507;28;20436;-62
2021/04/20 09:05:48;;;;;;;29.17;13.60;;;8.80;88.80;;;;;;5062111;28;20904;-62
2021/04/20 09:08:40;;;;;;;25.97;14.07;;;8.70;90.00;;;;;;5064480;28;20444;-62
2021/04/20 09:11:23;;;;;;;24.07;13.63;;;8.70;90.30;;;;;;5063421;28;20425;-61
2021/04/20 09:14:06;;;;;;;21.83;13.43;;;8.60;90.40;;;;;;5066763;28;21064;-61
2021/04/20 09:16:58;;;;;;;22.47;12.47;;;8.70;90.60;;;;;;5065275;28;20424;-61
2021/04/20 09:19:34;;;;;;;21.13;12.37;;;8.70;90.40;;;;;;5051004;28;20443;-61
2021/04/20 09:22:22;;;;;;;20.13;12.27;;;8.90;90.50;;;;;;5065279;28;20509;-62
2021/04/20 09:24:58;;;;;;;20.77;12.40;;;9.10;90.90;;;;;;5067712;28;20514;-62
2021/04/20 09:27:44;;;;;;;23.60;11.40;;;9.50;90.30;;;;;;5062876;28;20487;-61
2021/04/20 09:30:17;;;;;;;24.07;12.33;;;9.70;88.30;;;;;;5055053;28;20843;-61
2021/04/20 09:32:50;;;;;;;21.30;11.60;;;10.00;85.60;;;;;;5067920;28;20420;-61
2021/04/20 09:35:17;;;;;;;22.60;11.30;;;10.30;82.00;;;;;;5066096;28;20431;-63
2021/04/20 09:37:44;;;;;;;20.23;10.93;;;10.50;77.90;;;;;;5064304;28;20472;-61
2021/04/20 09:40:16;;;;;;;22.57;11.27;;;10.70;79.10;;;;;;5065192;28;20523;-61
2021/04/20 09:42:52;;;;;;;17.87;10.10;;;11.00;75.30;;;;;;5064453;28;20425;-62
2021/04/20 09:45:24;;;;;;;20.17;10.93;;;10.90;67.10;;;;;;5066536;28;20440;-61
2021/04/20 09:48:20;;;;;;;17.13;10.77;;;10.80;62.50;;;;;;5064149;28;20522;-61
2021/04/20 09:50:53;;;;;;;18.33;10.27;;;10.60;63.50;;;;;;5067549;28;20424;-61
2021/04/20 09:53:46;;;;;;;17.57;10.27;;;10.50;64.80;;;;;;5062993;28;20424;-62
2021/04/20 09:56:34;;;;;;;15.33;9.73;;;10.40;65.40;;;;;;5059609;28;20440;-61
2021/04/20 09:59:02;;;;;;;17.33;10.20;;;10.40;65.10;;;;;;5080762;28;20444;-60
2021/04/20 10:01:52;;;;;;;13.30;8.20;;;10.40;63.30;;;;;;5065357;28;20428;-60
2021/04/20 10:04:41;;;;;;;16.27;9.10;;;10.40;60.60;;;;;;5068826;28;21076;-63
2021/04/20 10:07:23;;;;;;;17.83;9.83;;;10.40;59.60;;;;;;5064445;28;21020;-61
2021/04/20 10:09:58;;;;;;;18.00;10.83;;;10.50;61.00;;;;;;5068128;28;21009;-61
2021/04/20 10:12:48;;;;;;;19.63;9.03;;;10.60;61.60;;;;;;5063960;28;20432;-61
2021/04/20 10:15:29;;;;;;;16.73;8.97;;;10.60;60.20;;;;;;5064515;28;20428;-61
2021/04/20 10:18:13;;;;;;;14.90;8.60;;;10.60;57.10;;;;;;5069320;28;20808;-60
2021/04/20 10:20:50;;;;;;;18.70;9.40;;;10.60;57.70;;;;;;5065662;28;20432;-64
2021/04/20 10:23:36;;;;;;;13.30;8.90;;;10.60;57.10;;;;;;5060522;28;20456;-62
2021/04/20 10:26:21;;;;;;;18.50;8.53;;;10.60;56.80;;;;;;5065408;28;20543;-62
2021/04/20 10:28:55;;;;;;;13.00;8.10;;;10.60;55.70;;;;;;5062907;28;20456;-63
2021/04/20 10:31:28;;;;;;;13.10;8.27;;;10.60;55.20;;;;;;5063313;28;20426;-62
2021/04/20 10:33:55;;;;;;;18.30;9.73;;;10.60;53.00;;;;;;5063501;28;20439;-61
2021/04/20 10:36:23;;;;;;;17.07;8.87;;;10.50;53.80;;;;;;5067268;28;20429;-61
2021/04/20 10:38:52;;;;;;;14.90;8.37;;;10.60;55.20;;;;;;5067529;28;20467;-62
2021/04/20 10:41:33;;;;;;;14.27;8.70;;;10.60;56.30;;;;;;5066373;28;20421;-63
2021/04/20 10:44:00;;;;;;;17.73;8.57;;;10.80;57.20;;;;;;5056730;28;20456;-61
2021/04/20 10:46:30;;;;;;;14.60;8.40;;;11.20;60.70;;;;;;5060011;28;20541;-62
2021/04/20 10:48:58;;;;;;;11.67;7.33;;;11.60;58.20;;;;;;5063429;28;20447;-61
2021/04/20 10:51:35;;;;;;;13.93;8.47;;;11.80;55.50;;;;;;5060220;28;20972;-62
2021/04/20 10:54:05;;;;;;;10.87;7.60;;;11.80;54.20;;;;;;5066172;28;20448;-62
2021/04/20 10:56:31;;;;;;;13.67;8.37;;;11.70;53.40;;;;;;5061867;28;20469;-62
2021/04/20 10:59:00;;;;;;;15.00;7.83;;;11.70;53.10;;;;;;5070584;28;20456;-63
2021/04/20 11:01:28;;;;;;;13.20;8.07;;;11.70;53.30;;;;;;5060772;28;20500;-62
2021/04/20 11:03:57;;;;;;;10.00;6.97;;;12.00;54.00;;;;;;5063763;28;20819;-62
2021/04/20 11:06:44;;;;;;;11.83;7.47;;;12.40;53.90;;;;;;5063991;28;20499;-63
2021/04/20 11:09:09;;;;;;;11.50;7.27;;;12.60;51.50;;;;;;5065117;28;20890;-62
2021/04/20 11:11:36;;;;;;;12.23;7.33;;;12.60;50.00;;;;;;5061382;28;20432;-62
2021/04/20 11:14:04;;;;;;;11.63;6.80;;;12.80;50.70;;;;;;5057284;28;20217;-62
2021/04/20 11:16:42;;;;;;;12.57;8.03;;;13.10;50.60;;;;;;5065221;28;20515;-61
2021/04/20 11:19:11;;;;;;;15.73;8.13;;;13.50;49.60;;;;;;5061410;28;20460;-62
2021/04/20 11:21:41;;;;;;;15.70;7.10;;;13.50;48.30;;;;;;5062827;28;20433;-62
2021/04/20 11:24:19;;;;;;;12.55;7.10;;;13.50;48.40;;;;;;5066562;28;20431;-62
2021/04/20 11:26:53;;;;;;;10.73;7.40;;;13.40;47.20;;;;;;5068717;28;20432;-62
2021/04/20 11:29:36;;;;;;;10.90;7.30;;;13.20;47.20;;;;;;5066941;28;20459;-61
2021/04/20 11:32:05;;;;;;;10.40;7.17;;;13.30;48.20;;;;;;5059473;28;20460;-62
2021/04/20 11:34:32;;;;;;;11.03;6.50;;;13.80;48.30;;;;;;5069258;28;20784;-61
2021/04/20 11:37:02;;;;;;;12.33;8.10;;;14.20;47.80;;;;;;5068991;28;20430;-62
2021/04/20 11:40:02;;;;;;;12.50;7.40;;;14.70;47.50;;;;;;5069087;28;21000;-63
2021/04/20 11:42:48;;;;;;;11.67;7.33;;;15.20;47.30;;;;;;5062911;28;20896;-62
2021/04/20 11:45:25;;;;;;;9.17;5.93;;;15.70;46.30;;;;;;5067803;28;20456;-62
2021/04/20 11:47:59;;;;;;;12.73;7.30;;;16.00;45.30;;;;;;5063033;28;20949;-60
2021/04/20 11:50:29;;;;;;;10.60;6.83;;;16.20;43.30;;;;;;5065144;28;20435;-59
2021/04/20 11:52:57;;;;;;;12.00;6.73;;;16.30;42.60;;;;;;5064184;28;20970;-59
2021/04/20 11:55:35;;;;;;;12.13;7.10;;;16.20;42.20;;;;;;5068951;28;20409;-62
2021/04/20 11:58:08;;;;;;;12.93;6.47;;;16.20;42.40;;;;;;5064422;28;20509;-61
2021/04/20 12:00:36;;;;;;;7.97;5.80;;;16.10;41.90;;;;;;5074743;28;20431;-61
2021/04/20 12:03:10;;;;;;;9.53;6.60;;;15.80;41.10;;;;;;5067068;28;21997;-60
2021/04/20 12:05:38;;;;;;;6.93;5.63;;;15.60;40.70;;;;;;5064703;28;20466;-60
2021/04/20 12:08:09;;;;;;;8.40;5.80;;;15.70;40.60;;;;;;5069226;28;20461;-60
2021/04/20 12:10:35;;;;;;;8.70;5.67;;;16.10;41.30;;;;;;5079447;28;20820;-61
2021/04/20 12:13:02;;;;;;;7.93;6.27;;;16.50;40.30;;;;;;5077701;28;20447;-62
2021/04/20 12:15:29;;;;;;;7.50;5.53;;;16.70;38.30;;;;;;5054915;28;20578;-62
2021/04/20 12:17:55;;;;;;;6.93;5.30;;;16.60;37.90;;;;;;5067547;28;20449;-61
2021/04/20 12:20:31;;;;;;;6.40;5.00;;;16.50;38.70;;;;;;5069368;28;20435;-61
2021/04/20 12:22:58;;;;;;;7.70;5.43;;;16.50;39.70;;;;;;5070066;28;21125;-61
2021/04/20 12:25:25;;;;;;;7.07;5.27;;;16.80;39.80;;;;;;5067807;28;20452;-61
2021/04/20 12:27:56;;;;;;;7.40;4.87;;;17.30;39.60;;;;;;5074922;28;20456;-61
2021/04/20 12:30:22;;;;;;;6.13;5.30;;;17.70;39.20;;;;;;5068303;28;20412;-63
2021/04/20 12:32:49;;;;;;;7.97;5.20;;;18.10;38.70;;;;;;5070562;28;21124;-61
2021/04/20 12:35:15;;;;;;;7.60;5.00;;;18.30;38.20;;;;;;5072805;28;20429;-60
2021/04/20 12:37:41;;;;;;;7.00;5.10;;;18.20;37.10;;;;;;5064248;28;21197;-61
2021/04/20 12:40:09;;;;;;;7.13;5.17;;;17.90;36.90;;;;;;5069072;28;20424;-60
2021/04/20 12:42:41;;;;;;;6.63;4.80;;;18.10;37.10;;;;;;5069353;28;20487;-60
2021/04/20 12:45:11;;;;;;;6.37;4.80;;;18.30;37.00;;;;;;5067844;28;20547;-61
2021/04/20 12:47:39;;;;;;;7.13;5.33;;;18.30;36.40;;;;;;5060459;28;20528;-60
2021/04/20 12:50:08;;;;;;;6.57;5.33;;;17.90;35.10;;;;;;5073020;28;20533;-61
2021/04/20 12:52:35;;;;;;;6.57;5.33;;;17.40;35.50;;;;;;5073668;28;20417;-61
2021/04/20 12:55:07;;;;;;;6.93;5.40;;;16.90;35.40;;;;;;5068190;28;20417;-63
2021/04/20 12:57:36;;;;;;;6.53;5.03;;;16.50;35.80;;;;;;5070790;28;20440;-62
2021/04/20 13:00:15;;;;;;;7.17;4.50;;;16.10;36.40;;;;;;5070144;28;20420;-60
2021/04/20 13:02:44;;;;;;;8.90;6.00;;;15.80;37.10;;;;;;5069221;28;20435;-60
2021/04/20 13:05:12;;;;;;;8.30;6.03;;;15.50;37.30;;;;;;5063595;28;20551;-60